sensor_id;sensor_type;location;lat;lon;timestamp;P1;durP1;ratioP1;P2;durP2;ratioP2
75446;SDS011;64024;55.820;37.574;2023-11-19T00:00:07;5.15;;;2.75;;
75446;SDS011;64024;55.820;37.574;2023-11-19T00:02:38;5.00;;;3.22;;
75446;SDS011;64024;55.820;37.574;2023-11-19T00:05:05;5.53;;;3.28;;
75446;SDS011;64024;55.820;37.574;2023-11-19T00:07:37;4.57;;;3.35;;
75446;SDS011;64024;55.820;37.574;2023-11-19T00:10:10;5.68;;;2.78;;
75446;SDS011;64024;55.820;37.574;2023-11-19T00:12:38;5.60;;;2.92;;
75446;SDS011;64024;55.820;37.574;2023-11-19T00:15:07;5.35;;;3.85;;
75446;SDS011;64024;55.820;37.574;2023-11-19T00:17:38;5.00;;;3.13;;
75446;SDS011;64024;55.820;37.574;2023-11-19T00:20:11;5.22;;;3.42;;
75446;SDS011;64024;55.820;37.574;2023-11-19T00:22:41;4.10;;;2.55;;
75446;SDS011;64024;55.820;37.574;2023-11-19T00:25:08;4.25;;;2.55;;
75446;SDS011;64024;55.820;37.574;2023-11-19T00:27:35;4.22;;;3.33;;
75446;SDS011;64024;55.820;37.574;2023-11-19T00:30:04;5.38;;;2.83;;
75446;SDS011;64024;55.820;37.574;2023-11-19T00:32:34;6.65;;;2.80;;
75446;SDS011;64024;55.820;37.574;2023-11-19T00:35:01;5.20;;;3.05;;
75446;SDS011;64024;55.820;37.574;2023-11-19T00:37:28;4.97;;;3.20;;
75446;SDS011;64024;55.820;37.574;2023-11-19T00:39:54;4.15;;;2.63;;
75446;SDS011;64024;55.820;37.574;2023-11-19T00:42:24;6.05;;;2.55;;
75446;SDS011;64024;55.820;37.574;2023-11-19T00:44:51;4.03;;;2.47;;
75446;SDS011;64024;55.820;37.574;2023-11-19T00:47:17;2.92;;;2.25;;
75446;SDS011;64024;55.820;37.574;2023-11-19T00:49:47;5.07;;;3.00;;
75446;SDS011;64024;55.820;37.574;2023-11-19T00:52:16;4.07;;;2.63;;
75446;SDS011;64024;55.820;37.574;2023-11-19T00:57:10;3.10;;;2.33;;
75446;SDS011;64024;55.820;37.574;2023-11-19T00:59:36;4.05;;;2.50;;
75446;SDS011;64024;55.820;37.574;2023-11-19T01:02:02;4.38;;;2.95;;
75446;SDS011;64024;55.820;37.574;2023-11-19T01:04:34;3.95;;;2.60;;
75446;SDS011;64024;55.820;37.574;2023-11-19T01:07:04;4.97;;;2.65;;
75446;SDS011;64024;55.820;37.574;2023-11-19T01:09:32;8.32;;;3.03;;
75446;SDS011;64024;55.820;37.574;2023-11-19T01:12:01;3.63;;;2.70;;
75446;SDS011;64024;55.820;37.574;2023-11-19T01:14:28;4.57;;;2.58;;
75446;SDS011;64024;55.820;37.574;2023-11-19T01:16:55;6.57;;;3.20;;
75446;SDS011;64024;55.820;37.574;2023-11-19T01:19:23;4.82;;;2.70;;
75446;SDS011;64024;55.820;37.574;2023-11-19T01:21:50;4.55;;;2.63;;
75446;SDS011;64024;55.820;37.574;2023-11-19T01:24:17;3.85;;;2.22;;
75446;SDS011;64024;55.820;37.574;2023-11-19T01:26:46;3.30;;;2.55;;
75446;SDS011;64024;55.820;37.574;2023-11-19T01:29:13;4.15;;;2.45;;
75446;SDS011;64024;55.820;37.574;2023-11-19T01:31:40;4.13;;;3.08;;
75446;SDS011;64024;55.820;37.574;2023-11-19T01:34:08;5.68;;;2.72;;
75446;SDS011;64024;55.820;37.574;2023-11-19T01:36:40;3.50;;;2.40;;
75446;SDS011;64024;55.820;37.574;2023-11-19T01:39:07;5.82;;;2.90;;
75446;SDS011;64024;55.820;37.574;2023-11-19T01:41:36;5.07;;;2.47;;
75446;SDS011;64024;55.820;37.574;2023-11-19T01:44:06;4.35;;;2.90;;
75446;SDS011;64024;55.820;37.574;2023-11-19T01:46:32;4.55;;;2.45;;
75446;SDS011;64024;55.820;37.574;2023-11-19T01:48:58;4.43;;;2.78;;
75446;SDS011;64024;55.820;37.574;2023-11-19T01:51:25;4.72;;;3.13;;
75446;SDS011;64024;55.820;37.574;2023-11-19T01:53:53;3.17;;;2.50;;
75446;SDS011;64024;55.820;37.574;2023-11-19T01:56:19;4.00;;;2.38;;
75446;SDS011;64024;55.820;37.574;2023-11-19T01:58:46;5.15;;;2.95;;
75446;SDS011;64024;55.820;37.574;2023-11-19T02:01:14;4.82;;;2.47;;
75446;SDS011;64024;55.820;37.574;2023-11-19T02:03:41;4.55;;;2.58;;
75446;SDS011;64024;55.820;37.574;2023-11-19T02:06:08;4.68;;;2.85;;
75446;SDS011;64024;55.820;37.574;2023-11-19T02:11:03;4.03;;;2.33;;
75446;SDS011;64024;55.820;37.574;2023-11-19T02:13:32;4.13;;;2.78;;
75446;SDS011;64024;55.820;37.574;2023-11-19T02:15:59;4.15;;;2.65;;
75446;SDS011;64024;55.820;37.574;2023-11-19T02:18:25;7.97;;;2.90;;
75446;SDS011;64024;55.820;37.574;2023-11-19T02:20:55;5.90;;;2.95;;
75446;SDS011;64024;55.820;37.574;2023-11-19T02:23:23;4.53;;;2.70;;
75446;SDS011;64024;55.820;37.574;2023-11-19T02:28:36;4.15;;;2.60;;
75446;SDS011;64024;55.820;37.574;2023-11-19T02:31:03;3.83;;;2.33;;
75446;SDS011;64024;55.820;37.574;2023-11-19T02:33:38;4.22;;;2.15;;
75446;SDS011;64024;55.820;37.574;2023-11-19T02:36:04;4.22;;;2.38;;
75446;SDS011;64024;55.820;37.574;2023-11-19T02:41:00;3.72;;;2.83;;
75446;SDS011;64024;55.820;37.574;2023-11-19T02:43:31;4.80;;;2.35;;
75446;SDS011;64024;55.820;37.574;2023-11-19T02:46:05;4.20;;;2.72;;
75446;SDS011;64024;55.820;37.574;2023-11-19T02:48:35;3.00;;;2.10;;
75446;SDS011;64024;55.820;37.574;2023-11-19T02:51:02;4.65;;;2.38;;
75446;SDS011;64024;55.820;37.574;2023-11-19T02:55:56;4.25;;;2.33;;
75446;SDS011;64024;55.820;37.574;2023-11-19T02:58:31;6.93;;;2.97;;
75446;SDS011;64024;55.820;37.574;2023-11-19T03:00:57;4.75;;;2.97;;
75446;SDS011;64024;55.820;37.574;2023-11-19T03:03:24;4.60;;;2.88;;
75446;SDS011;64024;55.820;37.574;2023-11-19T03:05:56;5.15;;;2.75;;
75446;SDS011;64024;55.820;37.574;2023-11-19T03:08:23;4.18;;;2.85;;
75446;SDS011;64024;55.820;37.574;2023-11-19T03:10:49;6.53;;;3.28;;
75446;SDS011;64024;55.820;37.574;2023-11-19T03:13:15;5.72;;;2.72;;
75446;SDS011;64024;55.820;37.574;2023-11-19T03:15:42;3.47;;;2.30;;
75446;SDS011;64024;55.820;37.574;2023-11-19T03:18:08;5.15;;;3.13;;
75446;SDS011;64024;55.820;37.574;2023-11-19T03:20:35;3.53;;;2.50;;
75446;SDS011;64024;55.820;37.574;2023-11-19T03:23:00;4.32;;;2.53;;
75446;SDS011;64024;55.820;37.574;2023-11-19T03:25:27;4.45;;;2.72;;
75446;SDS011;64024;55.820;37.574;2023-11-19T03:27:59;5.00;;;2.70;;
75446;SDS011;64024;55.820;37.574;2023-11-19T03:30:30;4.00;;;2.58;;
75446;SDS011;64024;55.820;37.574;2023-11-19T03:32:56;3.20;;;2.50;;
75446;SDS011;64024;55.820;37.574;2023-11-19T03:35:23;6.05;;;2.80;;
75446;SDS011;64024;55.820;37.574;2023-11-19T03:37:50;3.33;;;2.58;;
75446;SDS011;64024;55.820;37.574;2023-11-19T03:40:17;3.22;;;2.15;;
75446;SDS011;64024;55.820;37.574;2023-11-19T03:42:47;6.82;;;3.10;;
75446;SDS011;64024;55.820;37.574;2023-11-19T03:45:13;5.13;;;3.10;;
75446;SDS011;64024;55.820;37.574;2023-11-19T03:47:41;4.45;;;3.20;;
75446;SDS011;64024;55.820;37.574;2023-11-19T03:50:07;4.25;;;2.47;;
75446;SDS011;64024;55.820;37.574;2023-11-19T03:52:35;5.63;;;3.08;;
75446;SDS011;64024;55.820;37.574;2023-11-19T03:55:02;4.03;;;3.10;;
75446;SDS011;64024;55.820;37.574;2023-11-19T03:57:31;4.22;;;3.00;;
75446;SDS011;64024;55.820;37.574;2023-11-19T03:59:57;4.78;;;2.58;;
75446;SDS011;64024;55.820;37.574;2023-11-19T04:02:24;4.60;;;2.55;;
75446;SDS011;64024;55.820;37.574;2023-11-19T04:04:53;4.32;;;3.08;;
75446;SDS011;64024;55.820;37.574;2023-11-19T04:07:20;4.72;;;2.55;;
75446;SDS011;64024;55.820;37.574;2023-11-19T04:09:47;5.70;;;2.90;;
75446;SDS011;64024;55.820;37.574;2023-11-19T04:12:14;6.03;;;2.75;;
75446;SDS011;64024;55.820;37.574;2023-11-19T04:14:40;4.18;;;3.08;;
75446;SDS011;64024;55.820;37.574;2023-11-19T04:17:06;4.28;;;3.25;;
75446;SDS011;64024;55.820;37.574;2023-11-19T04:19:32;5.82;;;2.90;;
75446;SDS011;64024;55.820;37.574;2023-11-19T04:21:58;4.03;;;2.67;;
75446;SDS011;64024;55.820;37.574;2023-11-19T04:24:24;4.88;;;2.90;;
75446;SDS011;64024;55.820;37.574;2023-11-19T04:26:51;4.40;;;2.95;;
75446;SDS011;64024;55.820;37.574;2023-11-19T04:29:17;4.38;;;2.88;;
75446;SDS011;64024;55.820;37.574;2023-11-19T04:31:43;4.72;;;2.80;;
75446;SDS011;64024;55.820;37.574;2023-11-19T04:34:09;3.85;;;2.70;;
75446;SDS011;64024;55.820;37.574;2023-11-19T04:36:36;4.63;;;3.10;;
75446;SDS011;64024;55.820;37.574;2023-11-19T04:39:03;4.28;;;3.53;;
75446;SDS011;64024;55.820;37.574;2023-11-19T04:41:53;4.72;;;3.33;;
75446;SDS011;64024;55.820;37.574;2023-11-19T04:44:19;4.88;;;3.63;;
75446;SDS011;64024;55.820;37.574;2023-11-19T04:46:45;5.18;;;3.67;;
75446;SDS011;64024;55.820;37.574;2023-11-19T04:49:11;7.32;;;3.92;;
75446;SDS011;64024;55.820;37.574;2023-11-19T04:51:39;6.03;;;3.65;;
75446;SDS011;64024;55.820;37.574;2023-11-19T04:54:09;4.97;;;3.28;;
75446;SDS011;64024;55.820;37.574;2023-11-19T04:56:36;6.18;;;3.42;;
75446;SDS011;64024;55.820;37.574;2023-11-19T04:59:05;5.32;;;3.97;;
75446;SDS011;64024;55.820;37.574;2023-11-19T05:01:32;6.22;;;3.50;;
75446;SDS011;64024;55.820;37.574;2023-11-19T05:04:00;4.93;;;3.65;;
75446;SDS011;64024;55.820;37.574;2023-11-19T05:06:27;6.15;;;3.72;;
75446;SDS011;64024;55.820;37.574;2023-11-19T05:09:00;5.72;;;3.50;;
75446;SDS011;64024;55.820;37.574;2023-11-19T05:11:29;4.05;;;3.00;;
75446;SDS011;64024;55.820;37.574;2023-11-19T05:13:55;4.70;;;3.53;;
75446;SDS011;64024;55.820;37.574;2023-11-19T05:16:22;4.68;;;3.28;;
75446;SDS011;64024;55.820;37.574;2023-11-19T05:18:48;4.57;;;3.53;;
75446;SDS011;64024;55.820;37.574;2023-11-19T05:21:14;6.65;;;3.42;;
75446;SDS011;64024;55.820;37.574;2023-11-19T05:23:39;5.30;;;3.70;;
75446;SDS011;64024;55.820;37.574;2023-11-19T05:26:07;4.53;;;3.20;;
75446;SDS011;64024;55.820;37.574;2023-11-19T05:28:37;5.75;;;3.17;;
75446;SDS011;64024;55.820;37.574;2023-11-19T05:31:04;6.18;;;3.78;;
75446;SDS011;64024;55.820;37.574;2023-11-19T05:33:31;5.22;;;3.17;;
75446;SDS011;64024;55.820;37.574;2023-11-19T05:35:57;6.28;;;4.32;;
75446;SDS011;64024;55.820;37.574;2023-11-19T05:38:23;5.82;;;3.40;;
75446;SDS011;64024;55.820;37.574;2023-11-19T05:40:49;6.57;;;3.55;;
75446;SDS011;64024;55.820;37.574;2023-11-19T05:43:16;5.68;;;3.13;;
75446;SDS011;64024;55.820;37.574;2023-11-19T05:45:43;4.00;;;3.17;;
75446;SDS011;64024;55.820;37.574;2023-11-19T05:48:08;4.78;;;3.45;;
75446;SDS011;64024;55.820;37.574;2023-11-19T05:50:35;5.05;;;3.20;;
75446;SDS011;64024;55.820;37.574;2023-11-19T05:53:00;6.28;;;4.05;;
75446;SDS011;64024;55.820;37.574;2023-11-19T05:55:27;6.70;;;3.95;;
75446;SDS011;64024;55.820;37.574;2023-11-19T05:57:54;7.22;;;3.60;;
75446;SDS011;64024;55.820;37.574;2023-11-19T06:00:20;6.13;;;3.38;;
75446;SDS011;64024;55.820;37.574;2023-11-19T06:02:46;5.65;;;3.40;;
75446;SDS011;64024;55.820;37.574;2023-11-19T06:05:13;4.40;;;3.47;;
75446;SDS011;64024;55.820;37.574;2023-11-19T06:07:39;5.30;;;3.28;;
75446;SDS011;64024;55.820;37.574;2023-11-19T06:10:06;6.43;;;3.10;;
75446;SDS011;64024;55.820;37.574;2023-11-19T06:12:35;5.45;;;3.15;;
75446;SDS011;64024;55.820;37.574;2023-11-19T06:15:07;6.03;;;3.75;;
75446;SDS011;64024;55.820;37.574;2023-11-19T06:17:34;6.03;;;3.72;;
75446;SDS011;64024;55.820;37.574;2023-11-19T06:20:00;5.45;;;3.08;;
75446;SDS011;64024;55.820;37.574;2023-11-19T06:22:26;6.60;;;3.75;;
75446;SDS011;64024;55.820;37.574;2023-11-19T06:24:54;4.32;;;3.30;;
75446;SDS011;64024;55.820;37.574;2023-11-19T06:27:21;5.03;;;3.53;;
75446;SDS011;64024;55.820;37.574;2023-11-19T06:29:47;6.55;;;4.00;;
75446;SDS011;64024;55.820;37.574;2023-11-19T06:32:16;5.32;;;3.58;;
75446;SDS011;64024;55.820;37.574;2023-11-19T06:34:43;6.03;;;3.53;;
75446;SDS011;64024;55.820;37.574;2023-11-19T06:37:09;8.13;;;3.65;;
75446;SDS011;64024;55.820;37.574;2023-11-19T06:39:37;4.60;;;3.33;;
75446;SDS011;64024;55.820;37.574;2023-11-19T06:42:03;6.68;;;4.03;;
75446;SDS011;64024;55.820;37.574;2023-11-19T06:44:31;7.20;;;3.95;;
75446;SDS011;64024;55.820;37.574;2023-11-19T06:46:58;5.38;;;3.97;;
75446;SDS011;64024;55.820;37.574;2023-11-19T06:49:24;5.25;;;3.65;;
75446;SDS011;64024;55.820;37.574;2023-11-19T06:51:50;6.35;;;3.85;;
75446;SDS011;64024;55.820;37.574;2023-11-19T06:54:15;5.32;;;3.35;;
75446;SDS011;64024;55.820;37.574;2023-11-19T06:56:42;4.88;;;2.92;;
75446;SDS011;64024;55.820;37.574;2023-11-19T06:59:09;5.38;;;3.17;;
75446;SDS011;64024;55.820;37.574;2023-11-19T07:01:35;4.53;;;3.42;;
75446;SDS011;64024;55.820;37.574;2023-11-19T07:06:34;5.70;;;2.97;;
75446;SDS011;64024;55.820;37.574;2023-11-19T07:09:02;5.22;;;3.70;;
75446;SDS011;64024;55.820;37.574;2023-11-19T07:14:05;5.38;;;3.70;;
75446;SDS011;64024;55.820;37.574;2023-11-19T07:16:32;6.22;;;3.90;;
75446;SDS011;64024;55.820;37.574;2023-11-19T07:19:05;5.90;;;3.65;;
75446;SDS011;64024;55.820;37.574;2023-11-19T07:21:34;4.85;;;3.13;;
75446;SDS011;64024;55.820;37.574;2023-11-19T07:24:02;6.03;;;3.65;;
75446;SDS011;64024;55.820;37.574;2023-11-19T07:26:29;4.95;;;3.80;;
75446;SDS011;64024;55.820;37.574;2023-11-19T07:28:55;6.18;;;3.33;;
75446;SDS011;64024;55.820;37.574;2023-11-19T07:31:22;4.40;;;3.35;;
75446;SDS011;64024;55.820;37.574;2023-11-19T07:33:49;5.72;;;3.38;;
75446;SDS011;64024;55.820;37.574;2023-11-19T07:36:16;4.07;;;2.95;;
75446;SDS011;64024;55.820;37.574;2023-11-19T07:38:42;5.65;;;3.65;;
75446;SDS011;64024;55.820;37.574;2023-11-19T07:41:08;4.90;;;3.60;;
75446;SDS011;64024;55.820;37.574;2023-11-19T07:43:42;3.88;;;3.17;;
75446;SDS011;64024;55.820;37.574;2023-11-19T07:46:13;4.82;;;3.03;;
75446;SDS011;64024;55.820;37.574;2023-11-19T07:48:39;4.93;;;3.35;;
75446;SDS011;64024;55.820;37.574;2023-11-19T07:56:00;3.08;;;2.25;;
75446;SDS011;64024;55.820;37.574;2023-11-19T07:58:26;4.57;;;2.67;;
75446;SDS011;64024;55.820;37.574;2023-11-19T08:00:52;4.80;;;2.97;;
75446;SDS011;64024;55.820;37.574;2023-11-19T08:03:18;9.15;;;3.75;;
75446;SDS011;64024;55.820;37.574;2023-11-19T08:05:44;6.57;;;4.10;;
75446;SDS011;64024;55.820;37.574;2023-11-19T08:08:11;6.90;;;4.38;;
75446;SDS011;64024;55.820;37.574;2023-11-19T08:10:37;5.25;;;4.07;;
75446;SDS011;64024;55.820;37.574;2023-11-19T08:13:05;5.70;;;3.05;;
75446;SDS011;64024;55.820;37.574;2023-11-19T08:15:31;5.18;;;3.50;;
75446;SDS011;64024;55.820;37.574;2023-11-19T08:17:58;4.82;;;3.90;;
75446;SDS011;64024;55.820;37.574;2023-11-19T08:20:24;5.63;;;3.50;;
75446;SDS011;64024;55.820;37.574;2023-11-19T08:22:51;6.63;;;3.42;;
75446;SDS011;64024;55.820;37.574;2023-11-19T08:25:18;5.40;;;3.70;;
75446;SDS011;64024;55.820;37.574;2023-11-19T08:27:44;6.65;;;5.25;;
75446;SDS011;64024;55.820;37.574;2023-11-19T08:30:12;5.22;;;3.67;;
75446;SDS011;64024;55.820;37.574;2023-11-19T08:32:39;5.22;;;3.95;;
75446;SDS011;64024;55.820;37.574;2023-11-19T08:35:06;4.47;;;3.83;;
75446;SDS011;64024;55.820;37.574;2023-11-19T08:37:34;4.65;;;3.05;;
75446;SDS011;64024;55.820;37.574;2023-11-19T08:40:02;5.30;;;3.13;;
75446;SDS011;64024;55.820;37.574;2023-11-19T08:42:29;9.15;;;3.83;;
75446;SDS011;64024;55.820;37.574;2023-11-19T08:44:56;5.53;;;3.58;;
75446;SDS011;64024;55.820;37.574;2023-11-19T08:47:22;4.43;;;3.08;;
75446;SDS011;64024;55.820;37.574;2023-11-19T08:49:53;4.68;;;2.95;;
75446;SDS011;64024;55.820;37.574;2023-11-19T08:52:20;4.55;;;3.05;;
75446;SDS011;64024;55.820;37.574;2023-11-19T08:54:46;4.82;;;3.22;;
75446;SDS011;64024;55.820;37.574;2023-11-19T08:57:13;4.15;;;3.22;;
75446;SDS011;64024;55.820;37.574;2023-11-19T08:59:39;4.85;;;3.10;;
75446;SDS011;64024;55.820;37.574;2023-11-19T09:02:05;5.68;;;4.03;;
75446;SDS011;64024;55.820;37.574;2023-11-19T09:04:33;4.80;;;3.92;;
75446;SDS011;64024;55.820;37.574;2023-11-19T09:07:01;8.52;;;3.92;;
75446;SDS011;64024;55.820;37.574;2023-11-19T09:09:29;5.32;;;4.32;;
75446;SDS011;64024;55.820;37.574;2023-11-19T09:12:06;4.60;;;3.85;;
75446;SDS011;64024;55.820;37.574;2023-11-19T09:14:33;4.75;;;3.55;;
75446;SDS011;64024;55.820;37.574;2023-11-19T09:17:01;4.60;;;3.17;;
75446;SDS011;64024;55.820;37.574;2023-11-19T09:19:36;4.40;;;3.10;;
75446;SDS011;64024;55.820;37.574;2023-11-19T09:22:09;4.60;;;3.33;;
75446;SDS011;64024;55.820;37.574;2023-11-19T09:24:38;5.40;;;2.72;;
75446;SDS011;64024;55.820;37.574;2023-11-19T09:27:04;3.95;;;2.63;;
75446;SDS011;64024;55.820;37.574;2023-11-19T09:29:31;3.75;;;3.03;;
75446;SDS011;64024;55.820;37.574;2023-11-19T09:31:59;4.68;;;2.88;;
75446;SDS011;64024;55.820;37.574;2023-11-19T09:34:25;3.15;;;2.42;;
75446;SDS011;64024;55.820;37.574;2023-11-19T09:39:19;3.85;;;2.80;;
75446;SDS011;64024;55.820;37.574;2023-11-19T09:41:47;4.70;;;3.20;;
75446;SDS011;64024;55.820;37.574;2023-11-19T09:46:43;6.43;;;2.50;;
75446;SDS011;64024;55.820;37.574;2023-11-19T09:49:12;5.13;;;3.00;;
75446;SDS011;64024;55.820;37.574;2023-11-19T09:51:40;4.18;;;2.45;;
75446;SDS011;64024;55.820;37.574;2023-11-19T09:54:08;3.75;;;2.88;;
75446;SDS011;64024;55.820;37.574;2023-11-19T09:56:35;4.28;;;2.65;;
75446;SDS011;64024;55.820;37.574;2023-11-19T09:59:03;4.47;;;3.90;;
75446;SDS011;64024;55.820;37.574;2023-11-19T10:01:30;6.10;;;4.15;;
75446;SDS011;64024;55.820;37.574;2023-11-19T10:03:57;5.97;;;3.78;;
75446;SDS011;64024;55.820;37.574;2023-11-19T10:06:27;4.05;;;2.85;;
75446;SDS011;64024;55.820;37.574;2023-11-19T10:08:53;5.90;;;3.50;;
75446;SDS011;64024;55.820;37.574;2023-11-19T10:11:21;5.03;;;2.75;;
75446;SDS011;64024;55.820;37.574;2023-11-19T10:13:47;4.22;;;3.45;;
75446;SDS011;64024;55.820;37.574;2023-11-19T10:18:47;3.42;;;2.47;;
75446;SDS011;64024;55.820;37.574;2023-11-19T10:21:19;3.95;;;2.53;;
75446;SDS011;64024;55.820;37.574;2023-11-19T10:23:54;4.93;;;3.22;;
75446;SDS011;64024;55.820;37.574;2023-11-19T10:26:22;5.05;;;2.67;;
75446;SDS011;64024;55.820;37.574;2023-11-19T10:28:49;5.35;;;2.78;;
75446;SDS011;64024;55.820;37.574;2023-11-19T10:31:17;3.72;;;2.30;;
75446;SDS011;64024;55.820;37.574;2023-11-19T10:33:43;3.53;;;2.40;;
75446;SDS011;64024;55.820;37.574;2023-11-19T10:36:11;5.60;;;2.90;;
75446;SDS011;64024;55.820;37.574;2023-11-19T10:38:38;4.07;;;2.65;;
75446;SDS011;64024;55.820;37.574;2023-11-19T10:41:05;3.58;;;2.65;;
75446;SDS011;64024;55.820;37.574;2023-11-19T10:43:43;4.53;;;2.97;;
75446;SDS011;64024;55.820;37.574;2023-11-19T10:46:10;5.05;;;2.75;;
75446;SDS011;64024;55.820;37.574;2023-11-19T10:48:38;6.03;;;3.20;;
75446;SDS011;64024;55.820;37.574;2023-11-19T10:53:37;5.82;;;4.90;;
75446;SDS011;64024;55.820;37.574;2023-11-19T10:56:06;5.45;;;3.63;;
75446;SDS011;64024;55.820;37.574;2023-11-19T10:58:38;4.18;;;2.65;;
75446;SDS011;64024;55.820;37.574;2023-11-19T11:01:13;3.75;;;2.42;;
75446;SDS011;64024;55.820;37.574;2023-11-19T11:03:46;4.35;;;2.95;;
75446;SDS011;64024;55.820;37.574;2023-11-19T11:06:16;4.30;;;2.80;;
75446;SDS011;64024;55.820;37.574;2023-11-19T11:08:44;4.45;;;2.72;;
75446;SDS011;64024;55.820;37.574;2023-11-19T11:11:13;3.95;;;2.75;;
75446;SDS011;64024;55.820;37.574;2023-11-19T11:13:43;4.55;;;2.75;;
75446;SDS011;64024;55.820;37.574;2023-11-19T11:16:11;5.70;;;2.88;;
75446;SDS011;64024;55.820;37.574;2023-11-19T11:18:39;5.93;;;3.10;;
75446;SDS011;64024;55.820;37.574;2023-11-19T11:21:09;4.97;;;2.75;;
75446;SDS011;64024;55.820;37.574;2023-11-19T11:32:39;4.32;;;2.28;;
75446;SDS011;64024;55.820;37.574;2023-11-19T11:38:21;3.70;;;2.25;;
75446;SDS011;64024;55.820;37.574;2023-11-19T11:43:51;4.15;;;2.70;;
75446;SDS011;64024;55.820;37.574;2023-11-19T11:49:05;4.78;;;3.15;;
75446;SDS011;64024;55.820;37.574;2023-11-19T12:02:17;3.08;;;2.17;;
75446;SDS011;64024;55.820;37.574;2023-11-19T12:04:48;3.85;;;2.40;;
75446;SDS011;64024;55.820;37.574;2023-11-19T12:07:20;3.67;;;2.10;;
75446;SDS011;64024;55.820;37.574;2023-11-19T12:09:51;3.83;;;2.40;;
75446;SDS011;64024;55.820;37.574;2023-11-19T12:12:26;3.70;;;2.40;;
75446;SDS011;64024;55.820;37.574;2023-11-19T12:15:03;3.40;;;2.50;;
75446;SDS011;64024;55.820;37.574;2023-11-19T12:20:01;4.75;;;2.45;;
75446;SDS011;64024;55.820;37.574;2023-11-19T12:22:37;3.55;;;2.60;;
75446;SDS011;64024;55.820;37.574;2023-11-19T12:25:05;4.93;;;2.90;;
75446;SDS011;64024;55.820;37.574;2023-11-19T12:27:33;5.10;;;3.38;;
75446;SDS011;64024;55.820;37.574;2023-11-19T12:30:02;5.13;;;2.60;;
75446;SDS011;64024;55.820;37.574;2023-11-19T12:32:38;3.17;;;2.38;;
75446;SDS011;64024;55.820;37.574;2023-11-19T12:35:08;4.95;;;2.35;;
75446;SDS011;64024;55.820;37.574;2023-11-19T12:37:42;5.20;;;3.25;;
75446;SDS011;64024;55.820;37.574;2023-11-19T12:40:23;5.20;;;2.80;;
75446;SDS011;64024;55.820;37.574;2023-11-19T12:42:50;5.05;;;2.47;;
75446;SDS011;64024;55.820;37.574;2023-11-19T12:45:19;3.75;;;2.13;;
75446;SDS011;64024;55.820;37.574;2023-11-19T12:47:49;6.03;;;2.53;;
75446;SDS011;64024;55.820;37.574;2023-11-19T12:50:17;4.63;;;2.70;;
75446;SDS011;64024;55.820;37.574;2023-11-19T12:52:55;4.75;;;2.47;;
75446;SDS011;64024;55.820;37.574;2023-11-19T12:55:28;4.38;;;2.47;;
75446;SDS011;64024;55.820;37.574;2023-11-19T12:57:55;3.38;;;2.35;;
75446;SDS011;64024;55.820;37.574;2023-11-19T13:00:24;3.35;;;2.40;;
75446;SDS011;64024;55.820;37.574;2023-11-19T13:02:57;5.10;;;2.30;;
75446;SDS011;64024;55.820;37.574;2023-11-19T13:10:33;3.35;;;2.50;;
75446;SDS011;64024;55.820;37.574;2023-11-19T13:13:16;5.68;;;2.28;;
75446;SDS011;64024;55.820;37.574;2023-11-19T13:15:42;4.05;;;2.53;;
75446;SDS011;64024;55.820;37.574;2023-11-19T13:18:12;6.72;;;4.40;;
75446;SDS011;64024;55.820;37.574;2023-11-19T13:20:39;4.00;;;3.35;;
75446;SDS011;64024;55.820;37.574;2023-11-19T13:23:05;3.83;;;3.17;;
75446;SDS011;64024;55.820;37.574;2023-11-19T13:25:33;2.72;;;2.00;;
75446;SDS011;64024;55.820;37.574;2023-11-19T13:27:59;3.35;;;2.50;;
75446;SDS011;64024;55.820;37.574;2023-11-19T13:30:26;4.10;;;2.25;;
75446;SDS011;64024;55.820;37.574;2023-11-19T13:32:52;4.55;;;3.10;;
75446;SDS011;64024;55.820;37.574;2023-11-19T13:35:20;3.65;;;2.20;;
75446;SDS011;64024;55.820;37.574;2023-11-19T13:37:51;2.78;;;2.05;;
75446;SDS011;64024;55.820;37.574;2023-11-19T13:40:17;4.05;;;1.90;;
75446;SDS011;64024;55.820;37.574;2023-11-19T13:42:44;5.57;;;2.60;;
75446;SDS011;64024;55.820;37.574;2023-11-19T13:45:11;3.33;;;2.17;;
75446;SDS011;64024;55.820;37.574;2023-11-19T13:50:08;3.92;;;1.80;;
75446;SDS011;64024;55.820;37.574;2023-11-19T13:52:36;3.47;;;2.30;;
75446;SDS011;64024;55.820;37.574;2023-11-19T13:55:07;4.30;;;2.40;;
75446;SDS011;64024;55.820;37.574;2023-11-19T13:57:36;3.05;;;2.08;;
75446;SDS011;64024;55.820;37.574;2023-11-19T14:00:03;4.07;;;2.13;;
75446;SDS011;64024;55.820;37.574;2023-11-19T14:02:34;3.33;;;2.40;;
75446;SDS011;64024;55.820;37.574;2023-11-19T14:05:01;2.20;;;1.65;;
75446;SDS011;64024;55.820;37.574;2023-11-19T14:07:27;2.90;;;1.92;;
75446;SDS011;64024;55.820;37.574;2023-11-19T14:09:54;3.60;;;2.13;;
75446;SDS011;64024;55.820;37.574;2023-11-19T14:12:20;2.50;;;1.63;;
75446;SDS011;64024;55.820;37.574;2023-11-19T14:14:46;3.50;;;2.58;;
75446;SDS011;64024;55.820;37.574;2023-11-19T14:17:12;3.75;;;2.38;;
75446;SDS011;64024;55.820;37.574;2023-11-19T14:19:40;3.88;;;2.55;;
75446;SDS011;64024;55.820;37.574;2023-11-19T14:22:06;4.60;;;3.08;;
75446;SDS011;64024;55.820;37.574;2023-11-19T14:24:34;5.07;;;2.78;;
75446;SDS011;64024;55.820;37.574;2023-11-19T14:27:01;3.85;;;2.55;;
75446;SDS011;64024;55.820;37.574;2023-11-19T14:29:28;3.38;;;2.13;;
75446;SDS011;64024;55.820;37.574;2023-11-19T14:31:55;2.90;;;2.33;;
75446;SDS011;64024;55.820;37.574;2023-11-19T14:34:24;3.85;;;2.17;;
75446;SDS011;64024;55.820;37.574;2023-11-19T14:39:19;5.93;;;2.03;;
75446;SDS011;64024;55.820;37.574;2023-11-19T14:41:45;4.88;;;1.90;;
75446;SDS011;64024;55.820;37.574;2023-11-19T14:44:11;3.08;;;2.28;;
75446;SDS011;64024;55.820;37.574;2023-11-19T14:46:38;2.90;;;2.25;;
75446;SDS011;64024;55.820;37.574;2023-11-19T14:49:04;5.28;;;2.20;;
75446;SDS011;64024;55.820;37.574;2023-11-19T14:51:31;3.10;;;1.83;;
75446;SDS011;64024;55.820;37.574;2023-11-19T14:53:57;3.67;;;2.53;;
75446;SDS011;64024;55.820;37.574;2023-11-19T14:56:24;5.97;;;3.50;;
75446;SDS011;64024;55.820;37.574;2023-11-19T14:58:50;3.60;;;2.58;;
75446;SDS011;64024;55.820;37.574;2023-11-19T15:01:17;3.58;;;2.50;;
75446;SDS011;64024;55.820;37.574;2023-11-19T15:03:44;3.08;;;2.22;;
75446;SDS011;64024;55.820;37.574;2023-11-19T15:06:12;6.10;;;2.65;;
75446;SDS011;64024;55.820;37.574;2023-11-19T15:08:38;2.45;;;1.90;;
75446;SDS011;64024;55.820;37.574;2023-11-19T15:11:04;7.07;;;2.35;;
75446;SDS011;64024;55.820;37.574;2023-11-19T15:13:32;3.70;;;1.98;;
75446;SDS011;64024;55.820;37.574;2023-11-19T15:16:02;3.33;;;2.10;;
75446;SDS011;64024;55.820;37.574;2023-11-19T15:18:31;4.95;;;2.17;;
75446;SDS011;64024;55.820;37.574;2023-11-19T15:20:59;4.88;;;2.15;;
75446;SDS011;64024;55.820;37.574;2023-11-19T15:23:25;5.75;;;2.40;;
75446;SDS011;64024;55.820;37.574;2023-11-19T15:25:52;4.68;;;2.33;;
75446;SDS011;64024;55.820;37.574;2023-11-19T15:28:18;3.17;;;2.15;;
75446;SDS011;64024;55.820;37.574;2023-11-19T15:30:44;4.95;;;2.55;;
75446;SDS011;64024;55.820;37.574;2023-11-19T15:33:10;3.88;;;2.47;;
75446;SDS011;64024;55.820;37.574;2023-11-19T15:35:38;3.75;;;2.20;;
75446;SDS011;64024;55.820;37.574;2023-11-19T15:38:07;3.67;;;2.40;;
75446;SDS011;64024;55.820;37.574;2023-11-19T15:40:35;3.95;;;2.58;;
75446;SDS011;64024;55.820;37.574;2023-11-19T15:43:03;4.07;;;2.30;;
75446;SDS011;64024;55.820;37.574;2023-11-19T15:45:32;4.25;;;2.28;;
75446;SDS011;64024;55.820;37.574;2023-11-19T15:48:03;5.22;;;3.33;;
75446;SDS011;64024;55.820;37.574;2023-11-19T15:50:30;3.60;;;2.38;;